sensor_id;sensor_type;location;lat;lon;timestamp;temperature;humidity
66156;DHT22;52957;50.848;20.656;2024-02-14T00:00:12;28;85
66156;DHT22;52957;50.848;20.656;2024-02-14T00:10:09;28;85
66156;DHT22;52957;50.848;20.656;2024-02-14T00:20:14;28;85
66156;DHT22;52957;50.848;20.656;2024-02-14T00:30:13;28;85
66156;DHT22;52957;50.848;20.656;2024-02-14T00:40:13;28;85
66156;DHT22;52957;50.848;20.656;2024-02-14T00:50:02;28;85
66156;DHT22;52957;50.848;20.656;2024-02-14T01:00:14;28;85
66156;DHT22;52957;50.848;20.656;2024-02-14T01:10:10;28;85
66156;DHT22;52957;50.848;20.656;2024-02-14T01:20:11;28;85
66156;DHT22;52957;50.848;20.656;2024-02-14T01:30:10;28;85
66156;DHT22;52957;50.848;20.656;2024-02-14T01:40:15;28;83
66156;DHT22;52957;50.848;20.656;2024-02-14T01:50:17;28;83
66156;DHT22;52957;50.848;20.656;2024-02-14T02:00:09;28;83
66156;DHT22;52957;50.848;20.656;2024-02-14T02:10:12;28;83
66156;DHT22;52957;50.848;20.656;2024-02-14T02:20:07;28;83
66156;DHT22;52957;50.848;20.656;2024-02-14T02:30:16;28;83
66156;DHT22;52957;50.848;20.656;2024-02-14T02:40:02;28;82
66156;DHT22;52957;50.848;20.656;2024-02-14T02:50:13;28;82
66156;DHT22;52957;50.848;20.656;2024-02-14T03:00:22;28;82
66156;DHT22;52957;50.848;20.656;2024-02-14T03:10:07;28;82
66156;DHT22;52957;50.848;20.656;2024-02-14T03:20:15;28;82
66156;DHT22;52957;50.848;20.656;2024-02-14T03:30:06;28;82
66156;DHT22;52957;50.848;20.656;2024-02-14T03:40:07;27;79
66156;DHT22;52957;50.848;20.656;2024-02-14T03:50:02;27;79
66156;DHT22;52957;50.848;20.656;2024-02-14T04:00:14;27;79
66156;DHT22;52957;50.848;20.656;2024-02-14T04:10:05;27;79
66156;DHT22;52957;50.848;20.656;2024-02-14T04:20:07;27;79
66156;DHT22;52957;50.848;20.656;2024-02-14T04:30:11;27;79
66156;DHT22;52957;50.848;20.656;2024-02-14T04:40:15;28;77
66156;DHT22;52957;50.848;20.656;2024-02-14T04:50:03;28;77
66156;DHT22;52957;50.848;20.656;2024-02-14T05:00:13;28;77
66156;DHT22;52957;50.848;20.656;2024-02-14T05:10:09;28;77
66156;DHT22;52957;50.848;20.656;2024-02-14T05:20:12;28;77
66156;DHT22;52957;50.848;20.656;2024-02-14T05:30:10;28;77
66156;DHT22;52957;50.848;20.656;2024-02-14T05:40:08;28;78
66156;DHT22;52957;50.848;20.656;2024-02-14T05:50:14;28;78
66156;DHT22;52957;50.848;20.656;2024-02-14T06:00:14;28;78
66156;DHT22;52957;50.848;20.656;2024-02-14T06:10:12;28;78
66156;DHT22;52957;50.848;20.656;2024-02-14T06:20:14;28;78
66156;DHT22;52957;50.848;20.656;2024-02-14T06:30:03;28;78
66156;DHT22;52957;50.848;20.656;2024-02-14T06:40:09;28;78
66156;DHT22;52957;50.848;20.656;2024-02-14T06:50:12;28;78
66156;DHT22;52957;50.848;20.656;2024-02-14T07:00:11;28;78
66156;DHT22;52957;50.848;20.656;2024-02-14T07:10:03;28;76
66156;DHT22;52957;50.848;20.656;2024-02-14T07:20:14;28;76
66156;DHT22;52957;50.848;20.656;2024-02-14T07:30:15;28;76
66156;DHT22;52957;50.848;20.656;2024-02-14T07:40:13;28;76
66156;DHT22;52957;50.848;20.656;2024-02-14T07:50:10;28;76
66156;DHT22;52957;50.848;20.656;2024-02-14T08:00:14;28;76
66156;DHT22;52957;50.848;20.656;2024-02-14T08:10:11;28;76
66156;DHT22;52957;50.848;20.656;2024-02-14T08:20:06;28;76
66156;DHT22;52957;50.848;20.656;2024-02-14T08:30:13;28;76
66156;DHT22;52957;50.848;20.656;2024-02-14T08:40:11;28;78
66156;DHT22;52957;50.848;20.656;2024-02-14T08:50:06;28;78
66156;DHT22;52957;50.848;20.656;2024-02-14T09:00:02;28;78
66156;DHT22;52957;50.848;20.656;2024-02-14T09:20:14;28;78
66156;DHT22;52957;50.848;20.656;2024-02-14T09:30:12;28;78
66156;DHT22;52957;50.848;20.656;2024-02-14T09:50:16;28;78
66156;DHT22;52957;50.848;20.656;2024-02-14T10:00:15;28;78
66156;DHT22;52957;50.848;20.656;2024-02-14T10:10:14;28;77
66156;DHT22;52957;50.848;20.656;2024-02-14T10:20:07;28;77
66156;DHT22;52957;50.848;20.656;2024-02-14T10:30:10;28;77
66156;DHT22;52957;50.848;20.656;2024-02-14T10:40:13;28;77
66156;DHT22;52957;50.848;20.656;2024-02-14T10:50:04;28;77
66156;DHT22;52957;50.848;20.656;2024-02-14T11:00:23;28;77
66156;DHT22;52957;50.848;20.656;2024-02-14T11:20:32;28;76
66156;DHT22;52957;50.848;20.656;2024-02-14T11:30:05;28;76
66156;DHT22;52957;50.848;20.656;2024-02-14T11:40:14;28;76
66156;DHT22;52957;50.848;20.656;2024-02-14T11:50:02;28;76
66156;DHT22;52957;50.848;20.656;2024-02-14T12:00:14;28;76
66156;DHT22;52957;50.848;20.656;2024-02-14T12:10:05;28;76
66156;DHT22;52957;50.848;20.656;2024-02-14T12:20:24;28;76
66156;DHT22;52957;50.848;20.656;2024-02-14T12:30:06;28;76
66156;DHT22;52957;50.848;20.656;2024-02-14T12:40:17;29;75
66156;DHT22;52957;50.848;20.656;2024-02-14T12:50:13;29;75
66156;DHT22;52957;50.848;20.656;2024-02-14T13:00:14;29;75
66156;DHT22;52957;50.848;20.656;2024-02-14T13:10:09;29.2;74
66156;DHT22;52957;50.848;20.656;2024-02-14T13:20:09;29.2;74
66156;DHT22;52957;50.848;20.656;2024-02-14T13:30:10;29.2;74
66156;DHT22;52957;50.848;20.656;2024-02-14T13:40:12;29.26;74
66156;DHT22;52957;50.848;20.656;2024-02-14T13:50:05;29.26;74
66156;DHT22;52957;50.848;20.656;2024-02-14T14:00:14;29.26;74
66156;DHT22;52957;50.848;20.656;2024-02-14T14:20:11;29.26;74
66156;DHT22;52957;50.848;20.656;2024-02-14T14:30:02;29.26;74
66156;DHT22;52957;50.848;20.656;2024-02-14T14:40:06;29.36;73
66156;DHT22;52957;50.848;20.656;2024-02-14T14:50:10;29.36;73
66156;DHT22;52957;50.848;20.656;2024-02-14T15:00:14;29.36;73
66156;DHT22;52957;50.848;20.656;2024-02-14T15:10:13;29;73
66156;DHT22;52957;50.848;20.656;2024-02-14T15:20:14;29;73
66156;DHT22;52957;50.848;20.656;2024-02-14T15:40:10;29;73
66156;DHT22;52957;50.848;20.656;2024-02-14T15:50:03;29;73
66156;DHT22;52957;50.848;20.656;2024-02-14T16:00:07;29;73
66156;DHT22;52957;50.848;20.656;2024-02-14T16:10:08;29;73
66156;DHT22;52957;50.848;20.656;2024-02-14T16:20:15;29;73
66156;DHT22;52957;50.848;20.656;2024-02-14T16:30:15;29;73
66156;DHT22;52957;50.848;20.656;2024-02-14T16:40:09;29;73
66156;DHT22;52957;50.848;20.656;2024-02-14T16:50:03;29;73
66156;DHT22;52957;50.848;20.656;2024-02-14T17:00:03;29;73
66156;DHT22;52957;50.848;20.656;2024-02-14T17:20:13;29;73
66156;DHT22;52957;50.848;20.656;2024-02-14T17:30:11;29;73
66156;DHT22;52957;50.848;20.656;2024-02-14T17:50:11;29;74
66156;DHT22;52957;50.848;20.656;2024-02-14T18:00:21;29;74
66156;DHT22;52957;50.848;20.656;2024-02-14T18:20:03;29;74
66156;DHT22;52957;50.848;20.656;2024-02-14T18:30:08;29;74
66156;DHT22;52957;50.848;20.656;2024-02-14T18:50:07;29;77
66156;DHT22;52957;50.848;20.656;2024-02-14T19:00:14;29;77
66156;DHT22;52957;50.848;20.656;2024-02-14T19:20:15;29;77
66156;DHT22;52957;50.848;20.656;2024-02-14T19:30:12;29;77
66156;DHT22;52957;50.848;20.656;2024-02-14T19:40:15;29;77
66156;DHT22;52957;50.848;20.656;2024-02-14T19:50:17;28;80
66156;DHT22;52957;50.848;20.656;2024-02-14T20:00:17;28;80
66156;DHT22;52957;50.848;20.656;2024-02-14T20:10:12;28;80
66156;DHT22;52957;50.848;20.656;2024-02-14T20:20:06;28;82
66156;DHT22;52957;50.848;20.656;2024-02-14T20:30:13;28;82
66156;DHT22;52957;50.848;20.656;2024-02-14T20:40:05;28;82
66156;DHT22;52957;50.848;20.656;2024-02-14T20:50:02;28;81
66156;DHT22;52957;50.848;20.656;2024-02-14T21:00:12;28;81
66156;DHT22;52957;50.848;20.656;2024-02-14T21:10:10;28;81
66156;DHT22;52957;50.848;20.656;2024-02-14T21:20:11;28;81
66156;DHT22;52957;50.848;20.656;2024-02-14T21:30:08;28;81
66156;DHT22;52957;50.848;20.656;2024-02-14T21:40:11;28;81
66156;DHT22;52957;50.848;20.656;2024-02-14T21:50:12;28;82
66156;DHT22;52957;50.848;20.656;2024-02-14T22:00:09;28;82
66156;DHT22;52957;50.848;20.656;2024-02-14T22:10:11;28;82
66156;DHT22;52957;50.848;20.656;2024-02-14T22:20:13;28;82
66156;DHT22;52957;50.848;20.656;2024-02-14T22:30:15;28;82
66156;DHT22;52957;50.848;20.656;2024-02-14T22:40:10;28;82
66156;DHT22;52957;50.848;20.656;2024-02-14T22:50:03;28;82
66156;DHT22;52957;50.848;20.656;2024-02-14T23:00:10;28;82
66156;DHT22;52957;50.848;20.656;2024-02-14T23:10:13;28;82
66156;DHT22;52957;50.848;20.656;2024-02-14T23:20:12;28;82
66156;DHT22;52957;50.848;20.656;2024-02-14T23:30:09;28;82
66156;DHT22;52957;50.848;20.656;2024-02-14T23:40:04;28;82
66156;DHT22;52957;50.848;20.656;2024-02-14T23:50:15;28;82
